sensor_id;sensor_type;location;lat;lon;timestamp;pressure;altitude;pressure_sealevel;temperature;humidity
45793;BME280;31495;42.740;22.908;2023-05-01T00:00:17;93080.69;;;9.86;66.44
45793;BME280;31495;42.740;22.908;2023-05-01T00:01:17;92987.91;;;9.33;66.44
45793;BME280;31495;42.740;22.908;2023-05-01T00:02:17;93040.63;;;9.64;66.52
45793;BME280;31495;42.740;22.908;2023-05-01T00:03:16;93052.50;;;9.78;66.41
45793;BME280;31495;42.740;22.908;2023-05-01T00:04:16;93069.75;;;9.84;66.49
45793;BME280;31495;42.740;22.908;2023-05-01T00:05:16;93068.00;;;9.78;66.29
45793;BME280;31495;42.740;22.908;2023-05-01T00:06:15;93079.28;;;9.90;66.39
45793;BME280;31495;42.740;22.908;2023-05-01T00:07:15;93037.50;;;9.55;66.40
45793;BME280;31495;42.740;22.908;2023-05-01T00:08:14;93079.28;;;9.84;66.55
45793;BME280;31495;42.740;22.908;2023-05-01T00:09:14;93038.66;;;9.59;66.45
45793;BME280;31495;42.740;22.908;2023-05-01T00:10:14;93048.22;;;9.59;66.62
45793;BME280;31495;42.740;22.908;2023-05-01T00:11:13;93082.72;;;9.78;66.82
45793;BME280;31495;42.740;22.908;2023-05-01T00:12:13;93064.50;;;9.66;66.89
45793;BME280;31495;42.740;22.908;2023-05-01T00:13:12;93030.56;;;9.49;66.97
45793;BME280;31495;42.740;22.908;2023-05-01T00:14:12;93081.13;;;9.77;66.98
45793;BME280;31495;42.740;22.908;2023-05-01T00:15:11;93078.16;;;9.73;67.25
45793;BME280;31495;42.740;22.908;2023-05-01T00:16:11;93081.69;;;9.79;67.06
45793;BME280;31495;42.740;22.908;2023-05-01T00:17:10;93080.69;;;9.86;66.68
45793;BME280;31495;42.740;22.908;2023-05-01T00:18:10;93039.06;;;9.63;66.66
45793;BME280;31495;42.740;22.908;2023-05-01T00:19:09;93040.25;;;9.60;66.42
45793;BME280;31495;42.740;22.908;2023-05-01T00:20:10;93049.78;;;9.66;66.44
45793;BME280;31495;42.740;22.908;2023-05-01T00:21:10;93074.72;;;9.86;66.36
45793;BME280;31495;42.740;22.908;2023-05-01T00:22:10;93083.25;;;9.86;66.35
45793;BME280;31495;42.740;22.908;2023-05-01T00:23:09;93058.69;;;9.70;66.35
45793;BME280;31495;42.740;22.908;2023-05-01T00:24:10;93043.81;;;9.59;66.46
45793;BME280;31495;42.740;22.908;2023-05-01T00:25:10;93076.69;;;9.84;66.40
45793;BME280;31495;42.740;22.908;2023-05-01T00:26:09;93048.19;;;9.65;66.17
45793;BME280;31495;42.740;22.908;2023-05-01T00:27:09;93081.69;;;9.79;66.20
45793;BME280;31495;42.740;22.908;2023-05-01T00:28:08;93062.47;;;9.68;65.85
45793;BME280;31495;42.740;22.908;2023-05-01T00:29:08;93061.25;;;9.70;65.92
45793;BME280;31495;42.740;22.908;2023-05-01T00:30:08;93035.53;;;9.50;65.88
45793;BME280;31495;42.740;22.908;2023-05-01T00:31:08;93066.25;;;9.65;66.25
45793;BME280;31495;42.740;22.908;2023-05-01T00:32:07;93055.34;;;9.63;66.18
45793;BME280;31495;42.740;22.908;2023-05-01T00:33:08;93029.59;;;9.43;66.18
45793;BME280;31495;42.740;22.908;2023-05-01T00:34:09;93081.69;;;9.79;66.05
45793;BME280;31495;42.740;22.908;2023-05-01T00:35:09;93072.88;;;9.54;66.28
45793;BME280;31495;42.740;22.908;2023-05-01T00:36:10;93080.41;;;9.63;66.06
45793;BME280;31495;42.740;22.908;2023-05-01T00:37:09;93075.63;;;9.60;66.14
45793;BME280;31495;42.740;22.908;2023-05-01T00:38:09;93037.59;;;9.35;66.40
45793;BME280;31495;42.740;22.908;2023-05-01T00:39:08;93082.19;;;9.55;66.61
45793;BME280;31495;42.740;22.908;2023-05-01T00:40:08;93079.44;;;9.50;66.58
45793;BME280;31495;42.740;22.908;2023-05-01T00:41:07;93066.59;;;9.30;66.56
45793;BME280;31495;42.740;22.908;2023-05-01T00:42:07;93036.06;;;9.14;66.62
45793;BME280;31495;42.740;22.908;2023-05-01T00:43:06;93066.38;;;9.32;66.66
45793;BME280;31495;42.740;22.908;2023-05-01T00:44:06;93058.66;;;9.25;66.36
45793;BME280;31495;42.740;22.908;2023-05-01T00:45:06;93025.94;;;9.06;66.30
45793;BME280;31495;42.740;22.908;2023-05-01T00:46:06;93088.41;;;9.48;65.64
45793;BME280;31495;42.740;22.908;2023-05-01T00:47:06;93072.34;;;9.32;65.99
45793;BME280;31495;42.740;22.908;2023-05-01T00:48:06;93039.06;;;9.04;66.07
45793;BME280;31495;42.740;22.908;2023-05-01T00:49:05;93054.13;;;9.14;65.75
45793;BME280;31495;42.740;22.908;2023-05-01T00:50:05;93097.97;;;9.34;66.07
45793;BME280;31495;42.740;22.908;2023-05-01T00:51:06;93092.59;;;9.35;66.21
45793;BME280;31495;42.740;22.908;2023-05-01T00:52:07;93051.56;;;9.00;66.44
45793;BME280;31495;42.740;22.908;2023-05-01T00:53:08;93050.75;;;9.07;66.30
45793;BME280;31495;42.740;22.908;2023-05-01T00:54:07;93098.78;;;9.21;66.45
45793;BME280;31495;42.740;22.908;2023-05-01T00:55:07;93053.16;;;8.88;66.70
45793;BME280;31495;42.740;22.908;2023-05-01T00:56:06;93096.03;;;9.02;66.76
45793;BME280;31495;42.740;22.908;2023-05-01T00:57:06;93039.72;;;8.66;66.97
45793;BME280;31495;42.740;22.908;2023-05-01T00:58:09;93034.34;;;8.74;66.44
45793;BME280;31495;42.740;22.908;2023-05-01T00:59:09;93103.16;;;9.14;66.75
45793;BME280;31495;42.740;22.908;2023-05-01T01:00:09;93072.63;;;8.91;67.03
45793;BME280;31495;42.740;22.908;2023-05-01T01:01:11;93106.94;;;9.05;67.29
45793;BME280;31495;42.740;22.908;2023-05-01T01:02:10;93078.78;;;8.76;67.05
45793;BME280;31495;42.740;22.908;2023-05-01T01:03:11;93104.56;;;8.96;66.77
45793;BME280;31495;42.740;22.908;2023-05-01T01:04:11;93058.75;;;8.65;66.97
45793;BME280;31495;42.740;22.908;2023-05-01T01:05:10;93113.09;;;8.90;66.70
45793;BME280;31495;42.740;22.908;2023-05-01T01:07:26;93103.81;;;8.82;66.57
45793;BME280;31495;42.740;22.908;2023-05-01T01:08:45;93110.94;;;8.87;66.46
45793;BME280;31495;42.740;22.908;2023-05-01T01:12:59;93108.34;;;8.74;68.07
45793;BME280;31495;42.740;22.908;2023-05-01T01:14:10;93105.19;;;8.72;67.81
45793;BME280;31495;42.740;22.908;2023-05-01T01:15:29;93088.94;;;8.51;68.31
45793;BME280;31495;42.740;22.908;2023-05-01T01:16:45;93099.63;;;8.55;68.51
45793;BME280;31495;42.740;22.908;2023-05-01T01:19:12;93069.44;;;8.42;67.57
45793;BME280;31495;42.740;22.908;2023-05-01T01:21:45;93105.78;;;8.60;66.89
45793;BME280;31495;42.740;22.908;2023-05-01T01:22:52;93116.91;;;8.74;67.16
45793;BME280;31495;42.740;22.908;2023-05-01T01:24:35;93117.28;;;8.64;67.31
45793;BME280;31495;42.740;22.908;2023-05-01T01:26:10;93113.31;;;8.62;67.59
45793;BME280;31495;42.740;22.908;2023-05-01T01:34:35;93120.25;;;8.48;67.88
45793;BME280;31495;42.740;22.908;2023-05-01T01:35:18;93120.84;;;8.50;67.59
45793;BME280;31495;42.740;22.908;2023-05-01T01:37:44;93107.13;;;8.36;67.48
45793;BME280;31495;42.740;22.908;2023-05-01T01:39:07;93097.41;;;8.25;67.70
45793;BME280;31495;42.740;22.908;2023-05-01T01:40:12;93101.16;;;8.22;67.97
45793;BME280;31495;42.740;22.908;2023-05-01T01:41:21;93065.25;;;8.07;67.55
45793;BME280;31495;42.740;22.908;2023-05-01T01:42:25;93080.91;;;8.13;67.82
45793;BME280;31495;42.740;22.908;2023-05-01T01:43:32;93104.50;;;8.23;68.12
45793;BME280;31495;42.740;22.908;2023-05-01T01:44:39;93123.19;;;8.32;68.41
45793;BME280;31495;42.740;22.908;2023-05-01T01:45:42;93117.63;;;8.28;68.39
45793;BME280;31495;42.740;22.908;2023-05-01T01:46:45;93127.94;;;8.28;68.31
45793;BME280;31495;42.740;22.908;2023-05-01T01:47:47;93089.22;;;8.01;68.28
45793;BME280;31495;42.740;22.908;2023-05-01T01:48:49;93084.88;;;8.02;68.37
45793;BME280;31495;42.740;22.908;2023-05-01T01:49:51;93098.34;;;8.10;68.49
45793;BME280;31495;42.740;22.908;2023-05-01T01:50:52;93095.19;;;8.02;68.73
45793;BME280;31495;42.740;22.908;2023-05-01T01:51:55;93116.19;;;8.12;68.58
45793;BME280;31495;42.740;22.908;2023-05-01T01:52:59;93121.72;;;8.02;69.03
45793;BME280;31495;42.740;22.908;2023-05-01T01:54:01;93101.88;;;7.89;68.97
45793;BME280;31495;42.740;22.908;2023-05-01T01:55:04;93121.34;;;8.05;69.10
45793;BME280;31495;42.740;22.908;2023-05-01T01:56:06;93085.59;;;7.82;68.69
45793;BME280;31495;42.740;22.908;2023-05-01T01:57:08;93081.59;;;7.73;69.15
45793;BME280;31495;42.740;22.908;2023-05-01T01:58:11;93111.19;;;7.90;69.34
45793;BME280;31495;42.740;22.908;2023-05-01T01:59:12;93112.97;;;7.97;69.18
45793;BME280;31495;42.740;22.908;2023-05-01T02:00:14;93094.31;;;7.88;68.10
45793;BME280;31495;42.740;22.908;2023-05-01T02:01:15;93103.88;;;7.94;68.45
45793;BME280;31495;42.740;22.908;2023-05-01T02:02:18;93131.88;;;8.17;68.82
45793;BME280;31495;42.740;22.908;2023-05-01T02:03:22;93121.34;;;8.05;68.53
45793;BME280;31495;42.740;22.908;2023-05-01T02:04:23;93095.53;;;7.92;68.22
45793;BME280;31495;42.740;22.908;2023-05-01T02:05:24;93124.31;;;8.09;68.16
45793;BME280;31495;42.740;22.908;2023-05-01T02:06:24;93127.09;;;8.07;68.38
45793;BME280;31495;42.740;22.908;2023-05-01T02:07:25;93095.13;;;7.88;68.54
45793;BME280;31495;42.740;22.908;2023-05-01T02:08:29;93097.50;;;7.97;68.65
45793;BME280;31495;42.740;22.908;2023-05-01T02:09:30;93085.59;;;7.82;68.42
45793;BME280;31495;42.740;22.908;2023-05-01T02:10:31;93098.31;;;7.90;68.27
45793;BME280;31495;42.740;22.908;2023-05-01T02:11:32;93111.03;;;7.99;68.13
45793;BME280;31495;42.740;22.908;2023-05-01T02:12:35;93088.97;;;7.89;67.94
45793;BME280;31495;42.740;22.908;2023-05-01T02:13:36;93099.50;;;7.95;68.20
45793;BME280;31495;42.740;22.908;2023-05-01T02:14:38;93116.97;;;8.06;68.43
45793;BME280;31495;42.740;22.908;2023-05-01T02:15:39;93081.44;;;7.81;68.49
45793;BME280;31495;42.740;22.908;2023-05-01T02:16:39;93117.34;;;8.03;68.76
45793;BME280;31495;42.740;22.908;2023-05-01T02:17:40;93108.00;;;7.88;68.77
45793;BME280;31495;42.740;22.908;2023-05-01T02:18:40;93114.38;;;7.93;68.78
45793;BME280;31495;42.740;22.908;2023-05-01T02:19:43;93131.25;;;8.02;68.59
45793;BME280;31495;42.740;22.908;2023-05-01T02:20:43;93023.25;;;7.39;68.38
45793;BME280;31495;42.740;22.908;2023-05-01T02:21:44;93108.81;;;7.96;68.74
45793;BME280;31495;42.740;22.908;2023-05-01T02:22:45;93092.13;;;7.85;68.71
45793;BME280;31495;42.740;22.908;2023-05-01T02:23:45;93084.97;;;7.80;68.81
45793;BME280;31495;42.740;22.908;2023-05-01T02:24:45;93127.28;;;8.06;68.76
45793;BME280;31495;42.740;22.908;2023-05-01T02:25:47;93103.03;;;7.87;68.94
45793;BME280;31495;42.740;22.908;2023-05-01T02:26:56;93110.38;;;7.90;68.97
45793;BME280;31495;42.740;22.908;2023-05-01T02:28:02;93126.28;;;8.00;69.03
45793;BME280;31495;42.740;22.908;2023-05-01T02:29:04;93124.28;;;7.96;69.08
45793;BME280;31495;42.740;22.908;2023-05-01T02:30:06;93126.69;;;8.10;68.59
45793;BME280;31495;42.740;22.908;2023-05-01T02:31:06;93105.22;;;7.90;68.82
45793;BME280;31495;42.740;22.908;2023-05-01T02:32:05;93097.28;;;7.78;69.31
45793;BME280;31495;42.740;22.908;2023-05-01T02:33:08;93127.44;;;7.98;69.50
45793;BME280;31495;42.740;22.908;2023-05-01T02:34:07;93095.47;;;7.72;69.50
45793;BME280;31495;42.740;22.908;2023-05-01T02:35:07;93125.06;;;7.96;70.11
45793;BME280;31495;42.740;22.908;2023-05-01T02:36:07;93122.84;;;7.86;69.90
45793;BME280;31495;42.740;22.908;2023-05-01T02:37:07;93096.25;;;7.66;70.58
45793;BME280;31495;42.740;22.908;2023-05-01T02:38:10;93090.09;;;7.67;70.68
45793;BME280;31495;42.740;22.908;2023-05-01T02:39:11;93129.06;;;7.99;70.74
45793;BME280;31495;42.740;22.908;2023-05-01T02:40:11;93128.03;;;8.00;70.21
45793;BME280;31495;42.740;22.908;2023-05-01T02:41:14;93101.09;;;7.89;70.15
45793;BME280;31495;42.740;22.908;2023-05-01T02:42:15;93053.63;;;7.57;69.89
45793;BME280;31495;42.740;22.908;2023-05-01T02:43:19;93123.91;;;7.99;69.77
45793;BME280;31495;42.740;22.908;2023-05-01T02:44:19;93113.13;;;7.82;70.20
45793;BME280;31495;42.740;22.908;2023-05-01T02:45:21;93076.03;;;7.63;70.05
45793;BME280;31495;42.740;22.908;2023-05-01T02:46:24;93092.13;;;7.85;69.96
45793;BME280;31495;42.740;22.908;2023-05-01T02:47:26;93090.94;;;7.81;69.82
45793;BME280;31495;42.740;22.908;2023-05-01T02:48:27;93098.13;;;7.92;69.47
45793;BME280;31495;42.740;22.908;2023-05-01T02:49:30;93122.09;;;7.99;69.67
45793;BME280;31495;42.740;22.908;2023-05-01T02:50:31;93106.59;;;7.79;70.11
45793;BME280;31495;42.740;22.908;2023-05-01T02:51:31;93029.94;;;7.26;70.36
45793;BME280;31495;42.740;22.908;2023-05-01T02:52:31;93098.84;;;7.72;70.18
45793;BME280;31495;42.740;22.908;2023-05-01T02:53:31;93101.63;;;7.78;69.87
45793;BME280;31495;42.740;22.908;2023-05-01T02:54:31;93090.50;;;7.70;70.04
45793;BME280;31495;42.740;22.908;2023-05-01T02:55:31;93070.63;;;7.51;70.30
45793;BME280;31495;42.740;22.908;2023-05-01T02:56:31;93122.81;;;7.73;70.35
45793;BME280;31495;42.740;22.908;2023-05-01T02:57:32;93109.88;;;7.60;70.18
45793;BME280;31495;42.740;22.908;2023-05-01T02:58:33;93142.69;;;7.86;69.58
45793;BME280;31495;42.740;22.908;2023-05-01T02:59:32;93087.44;;;7.47;69.37
45793;BME280;31495;42.740;22.908;2023-05-01T03:00:33;93140.84;;;7.73;69.61
45793;BME280;31495;42.740;22.908;2023-05-01T03:01:33;93143.81;;;7.77;69.20
45793;BME280;31495;42.740;22.908;2023-05-01T03:02:33;93104.91;;;7.51;69.07
45793;BME280;31495;42.740;22.908;2023-05-01T03:03:32;93088.97;;;7.34;69.55
45793;BME280;31495;42.740;22.908;2023-05-01T03:04:32;93117.75;;;7.45;69.91
45793;BME280;31495;42.740;22.908;2023-05-01T03:05:31;93110.00;;;7.38;70.27
45793;BME280;31495;42.740;22.908;2023-05-01T03:06:31;93122.31;;;7.49;69.83
45793;BME280;31495;42.740;22.908;2023-05-01T03:07:30;93097.09;;;7.31;69.72
45793;BME280;31495;42.740;22.908;2023-05-01T03:08:33;93123.06;;;7.36;70.23
45793;BME280;31495;42.740;22.908;2023-05-01T03:09:33;93103.94;;;7.17;70.16
45793;BME280;31495;42.740;22.908;2023-05-01T03:10:33;93083.91;;;7.13;69.96
45793;BME280;31495;42.740;22.908;2023-05-01T03:11:32;93125.16;;;7.26;70.28
45793;BME280;31495;42.740;22.908;2023-05-01T03:12:32;93138.50;;;7.36;70.25
45793;BME280;31495;42.740;22.908;2023-05-01T03:13:33;93113.09;;;7.27;69.94
45793;BME280;31495;42.740;22.908;2023-05-01T03:14:32;93130.59;;;7.38;70.19
45793;BME280;31495;42.740;22.908;2023-05-01T03:15:32;93143.44;;;7.38;70.34
45793;BME280;31495;42.740;22.908;2023-05-01T03:16:31;93120.63;;;7.28;70.49
45793;BME280;31495;42.740;22.908;2023-05-01T03:17:31;93132.50;;;7.29;70.18
45793;BME280;31495;42.740;22.908;2023-05-01T03:18:30;93120.44;;;7.30;69.82
45793;BME280;31495;42.740;22.908;2023-05-01T03:19:29;93122.97;;;7.23;70.17
45793;BME280;31495;42.740;22.908;2023-05-01T03:20:29;93146.84;;;7.45;69.91
45793;BME280;31495;42.740;22.908;2023-05-01T03:21:29;93114.06;;;7.26;69.83
45793;BME280;31495;42.740;22.908;2023-05-01T03:22:30;93119.78;;;7.21;70.19
45793;BME280;31495;42.740;22.908;2023-05-01T03:23:31;93131.34;;;7.32;70.15
45793;BME280;31495;42.740;22.908;2023-05-01T03:24:30;93141.66;;;7.39;70.18
45793;BME280;31495;42.740;22.908;2023-05-01T03:25:30;93152.94;;;7.38;70.35
45793;BME280;31495;42.740;22.908;2023-05-01T03:26:30;93120.34;;;7.16;70.51
45793;BME280;31495;42.740;22.908;2023-05-01T03:27:31;93135.25;;;7.28;70.56
45793;BME280;31495;42.740;22.908;2023-05-01T03:28:30;93125.13;;;7.20;70.11
45793;BME280;31495;42.740;22.908;2023-05-01T03:29:30;93109.69;;;6.91;69.34
45793;BME280;31495;42.740;22.908;2023-05-01T03:30:32;93123.59;;;6.97;69.31
45793;BME280;31495;42.740;22.908;2023-05-01T03:31:32;93161.31;;;7.18;69.22
45793;BME280;31495;42.740;22.908;2023-05-01T03:32:31;93142.84;;;7.08;69.55
45793;BME280;31495;42.740;22.908;2023-05-01T03:33:31;93095.97;;;6.77;69.68
45793;BME280;31495;42.740;22.908;2023-05-01T03:34:30;93139.28;;;7.02;70.14
45793;BME280;31495;42.740;22.908;2023-05-01T03:35:30;93157.00;;;7.18;70.01
45793;BME280;31495;42.740;22.908;2023-05-01T03:36:29;93074.50;;;6.63;69.71
45793;BME280;31495;42.740;22.908;2023-05-01T03:37:32;93143.22;;;7.05;69.40
45793;BME280;31495;42.740;22.908;2023-05-01T03:38:31;93137.84;;;6.99;69.72
45793;BME280;31495;42.740;22.908;2023-05-01T03:39:31;93136.13;;;7.07;69.67
45793;BME280;31495;42.740;22.908;2023-05-01T03:40:30;93139.28;;;7.02;69.75
45793;BME280;31495;42.740;22.908;2023-05-01T03:41:30;93116.81;;;6.89;69.66
45793;BME280;31495;42.740;22.908;2023-05-01T03:42:29;93151.38;;;7.08;69.86
45793;BME280;31495;42.740;22.908;2023-05-01T03:43:28;93150.16;;;7.04;70.15
45793;BME280;31495;42.740;22.908;2023-05-01T03:44:28;93113.38;;;6.82;69.92
45793;BME280;31495;42.740;22.908;2023-05-01T03:45:27;93154.34;;;7.05;70.56
45793;BME280;31495;42.740;22.908;2023-05-01T03:46:27;93151.75;;;7.05;70.69
45793;BME280;31495;42.740;22.908;2023-05-01T03:47:26;93147.53;;;6.97;70.87
45793;BME280;31495;42.740;22.908;2023-05-01T03:48:27;93152.56;;;7.06;70.92
45793;BME280;31495;42.740;22.908;2023-05-01T03:49:27;93165.69;;;7.17;70.63
45793;BME280;31495;42.740;22.908;2023-05-01T03:50:27;93152.97;;;7.09;70.62
45793;BME280;31495;42.740;22.908;2023-05-01T03:51:27;93153.69;;;7.03;70.76
45793;BME280;31495;42.740;22.908;2023-05-01T03:52:26;93139.97;;;6.89;70.51
45793;BME280;31495;42.740;22.908;2023-05-01T03:53:25;93124.13;;;6.86;70.25
45793;BME280;31495;42.740;22.908;2023-05-01T03:54:25;93125.56;;;6.95;69.94
45793;BME280;31495;42.740;22.908;2023-05-01T03:55:24;93105.13;;;6.87;69.66
45793;BME280;31495;42.740;22.908;2023-05-01T03:56:25;93139.94;;;7.17;69.59
45793;BME280;31495;42.740;22.908;2023-05-01T03:57:24;93062.69;;;6.69;69.64
45793;BME280;31495;42.740;22.908;2023-05-01T03:58:25;93105.53;;;6.90;70.04
45793;BME280;31495;42.740;22.908;2023-05-01T03:59:25;93099.19;;;6.86;70.21
45793;BME280;31495;42.740;22.908;2023-05-01T04:00:25;93137.97;;;7.20;70.25
45793;BME280;31495;42.740;22.908;2023-05-01T04:01:25;93138.16;;;7.18;70.23
45793;BME280;31495;42.740;22.908;2023-05-01T04:02:25;93142.91;;;7.14;70.29
45793;BME280;31495;42.740;22.908;2023-05-01T04:03:25;93102.59;;;6.93;70.27
45793;BME280;31495;42.740;22.908;2023-05-01T04:04:25;93110.97;;;7.02;70.09
45793;BME280;31495;42.740;22.908;2023-05-01T04:05:24;93141.56;;;7.18;70.38
45793;BME280;31495;42.740;22.908;2023-05-01T04:06:24;93136.97;;;7.14;70.25
45793;BME280;31495;42.740;22.908;2023-05-01T04:07:24;93150.84;;;7.20;70.40
45793;BME280;31495;42.740;22.908;2023-05-01T04:08:23;93155.41;;;7.17;70.81
45793;BME280;31495;42.740;22.908;2023-05-01T04:09:23;93165.34;;;7.27;70.78
45793;BME280;31495;42.740;22.908;2023-05-01T04:10:23;93163.56;;;7.28;71.00
45793;BME280;31495;42.740;22.908;2023-05-01T04:11:22;93142.13;;;7.14;70.89
45793;BME280;31495;42.740;22.908;2023-05-01T04:12:22;93152.84;;;7.24;71.05
45793;BME280;31495;42.740;22.908;2023-05-01T04:13:21;93155.88;;;7.34;70.89
45793;BME280;31495;42.740;22.908;2023-05-01T04:14:20;93151.19;;;7.38;70.69
45793;BME280;31495;42.740;22.908;2023-05-01T04:15:20;93171.00;;;7.44;70.89
45793;BME280;31495;42.740;22.908;2023-05-01T04:16:20;93152.72;;;7.32;70.89
45793;BME280;31495;42.740;22.908;2023-05-01T04:17:20;93170.00;;;7.45;70.91
45793;BME280;31495;42.740;22.908;2023-05-01T04:18:20;93168.03;;;7.47;71.00
45793;BME280;31495;42.740;22.908;2023-05-01T04:19:19;93162.69;;;7.49;70.97
45793;BME280;31495;42.740;22.908;2023-05-01T04:20:19;93130.69;;;7.23;71.00
45793;BME280;31495;42.740;22.908;2023-05-01T04:21:18;93158.56;;;7.48;70.94
45793;BME280;31495;42.740;22.908;2023-05-01T04:22:18;93168.06;;;7.54;70.45
45793;BME280;31495;42.740;22.908;2023-05-01T04:23:18;93105.13;;;7.15;70.55
45793;BME280;31495;42.740;22.908;2023-05-01T04:24:18;93108.47;;;7.15;70.65
45793;BME280;31495;42.740;22.908;2023-05-01T04:25:17;93169.25;;;7.51;70.99
45793;BME280;31495;42.740;22.908;2023-05-01T04:26:17;93160.50;;;7.46;71.06
45793;BME280;31495;42.740;22.908;2023-05-01T04:27:16;93143.44;;;7.38;70.87
45793;BME280;31495;42.740;22.908;2023-05-01T04:28:17;93178.03;;;7.64;70.88
45793;BME280;31495;42.740;22.908;2023-05-01T04:29:17;93156.00;;;7.54;71.00
45793;BME280;31495;42.740;22.908;2023-05-01T04:30:17;93132.56;;;7.43;71.18
45793;BME280;31495;42.740;22.908;2023-05-01T04:31:16;93111.72;;;7.31;71.21
45793;BME280;31495;42.740;22.908;2023-05-01T04:32:15;93171.34;;;7.69;71.20
45793;BME280;31495;42.740;22.908;2023-05-01T04:33:15;93186.44;;;7.79;71.33
45793;BME280;31495;42.740;22.908;2023-05-01T04:34:15;93153.66;;;7.60;71.21
45793;BME280;31495;42.740;22.908;2023-05-01T04:35:15;93119.09;;;7.41;71.48
45793;BME280;31495;42.740;22.908;2023-05-01T04:36:15;93172.00;;;7.85;71.16
45793;BME280;31495;42.740;22.908;2023-05-01T04:37:15;93131.50;;;7.65;70.75
45793;BME280;31495;42.740;22.908;2023-05-01T04:38:16;93101.09;;;7.47;70.33
45793;BME280;31495;42.740;22.908;2023-05-01T04:39:15;93146.63;;;7.82;70.43
45793;BME280;31495;42.740;22.908;2023-05-01T04:40:15;93172.66;;;8.00;70.66
45793;BME280;31495;42.740;22.908;2023-05-01T04:41:15;93176.56;;;7.89;71.28
45793;BME280;31495;42.740;22.908;2023-05-01T04:42:14;93178.00;;;7.99;71.76
45793;BME280;31495;42.740;22.908;2023-05-01T04:43:14;93151.75;;;7.75;71.88
45793;BME280;31495;42.740;22.908;2023-05-01T04:44:13;93176.38;;;7.91;72.13
45793;BME280;31495;42.740;22.908;2023-05-01T04:45:13;93176.00;;;7.94;72.15
45793;BME280;31495;42.740;22.908;2023-05-01T04:46:13;93178.78;;;7.93;72.34
45793;BME280;31495;42.740;22.908;2023-05-01T04:47:13;93166.88;;;7.91;72.29
45793;BME280;31495;42.740;22.908;2023-05-01T04:48:12;93099.75;;;7.51;72.24
45793;BME280;31495;42.740;22.908;2023-05-01T04:49:11;93140.88;;;7.80;72.26
45793;BME280;31495;42.740;22.908;2023-05-01T04:50:11;93187.53;;;8.12;72.02
45793;BME280;31495;42.740;22.908;2023-05-01T04:51:10;93158.78;;;8.01;71.98
45793;BME280;31495;42.740;22.908;2023-05-01T04:52:10;93171.28;;;8.11;71.84
45793;BME280;31495;42.740;22.908;2023-05-01T04:53:10;93147.25;;;7.90;71.86
45793;BME280;31495;42.740;22.908;2023-05-01T04:54:09;93140.31;;;7.91;72.27
45793;BME280;31495;42.740;22.908;2023-05-01T04:55:09;93141.56;;;8.02;72.14
45793;BME280;31495;42.740;22.908;2023-05-01T04:56:09;93152.69;;;8.16;72.03
45793;BME280;31495;42.740;22.908;2023-05-01T04:57:09;93123.06;;;7.91;72.22
45793;BME280;31495;42.740;22.908;2023-05-01T04:58:08;93172.94;;;8.32;72.58
45793;BME280;31495;42.740;22.908;2023-05-01T04:59:07;93144.56;;;8.19;72.79
45793;BME280;31495;42.740;22.908;2023-05-01T05:00:08;93112.41;;;8.01;72.46
45793;BME280;31495;42.740;22.908;2023-05-01T05:01:07;93071.50;;;7.78;72.58
45793;BME280;31495;42.740;22.908;2023-05-01T05:02:07;93182.75;;;8.50;72.73
45793;BME280;31495;42.740;22.908;2023-05-01T05:03:07;93123.34;;;8.10;72.73
45793;BME280;31495;42.740;22.908;2023-05-01T05:04:06;93085.63;;;7.89;72.69
45793;BME280;31495;42.740;22.908;2023-05-01T05:05:06;93164.88;;;8.49;72.73
45793;BME280;31495;42.740;22.908;2023-05-01T05:06:06;93179.38;;;8.63;72.98
45793;BME280;31495;42.740;22.908;2023-05-01T05:07:05;93122.34;;;8.24;72.99
45793;BME280;31495;42.740;22.908;2023-05-01T05:08:05;93193.47;;;8.74;73.31
45793;BME280;31495;42.740;22.908;2023-05-01T05:09:04;93173.03;;;8.65;73.07
45793;BME280;31495;42.740;22.908;2023-05-01T05:10:04;93132.53;;;8.46;72.88
45793;BME280;31495;42.740;22.908;2023-05-01T05:11:03;93169.66;;;8.65;72.88
45793;BME280;31495;42.740;22.908;2023-05-01T05:12:03;93198.69;;;8.87;72.68
45793;BME280;31495;42.740;22.908;2023-05-01T05:13:03;93154.78;;;8.60;72.36
45793;BME280;31495;42.740;22.908;2023-05-01T05:14:03;93201.44;;;8.92;72.39
45793;BME280;31495;42.740;22.908;2023-05-01T05:15:02;93171.47;;;8.78;72.28
45793;BME280;31495;42.740;22.908;2023-05-01T05:16:02;93153.41;;;8.71;72.29
45793;BME280;31495;42.740;22.908;2023-05-01T05:17:01;93131.16;;;8.63;72.11
45793;BME280;31495;42.740;22.908;2023-05-01T05:18:01;93161.34;;;8.83;72.30
45793;BME280;31495;42.740;22.908;2023-05-01T05:19:02;93183.97;;;9.08;72.08
45793;BME280;31495;42.740;22.908;2023-05-01T05:20:01;93198.66;;;9.20;71.94
45793;BME280;31495;42.740;22.908;2023-05-01T05:21:04;93200.47;;;9.27;71.66
45793;BME280;31495;42.740;22.908;2023-05-01T05:22:04;93164.31;;;9.07;71.61
45793;BME280;31495;42.740;22.908;2023-05-01T05:23:04;93175.44;;;9.07;72.28
45793;BME280;31495;42.740;22.908;2023-05-01T05:24:03;93173.66;;;9.08;72.34
45793;BME280;31495;42.740;22.908;2023-05-01T05:25:03;93161.34;;;8.96;72.72
45793;BME280;31495;42.740;22.908;2023-05-01T05:26:05;93170.47;;;9.06;72.69
45793;BME280;31495;42.740;22.908;2023-05-01T05:27:04;93201.03;;;9.35;72.59
45793;BME280;31495;42.740;22.908;2023-05-01T05:28:05;93184.56;;;9.36;72.59
45793;BME280;31495;42.740;22.908;2023-05-01T05:29:04;93154.41;;;9.17;72.77
45793;BME280;31495;42.740;22.908;2023-05-01T05:30:04;93195.09;;;9.42;72.92
45793;BME280;31495;42.740;22.908;2023-05-01T05:31:12;93170.25;;;9.27;72.74
45793;BME280;31495;42.740;22.908;2023-05-01T05:32:11;93206.38;;;9.54;72.54
45793;BME280;31495;42.740;22.908;2023-05-01T05:33:11;93202.59;;;9.56;72.50
45793;BME280;31495;42.740;22.908;2023-05-01T05:34:11;93160.91;;;9.33;72.39
45793;BME280;31495;42.740;22.908;2023-05-01T05:35:11;93150.56;;;9.33;72.00
45793;BME280;31495;42.740;22.908;2023-05-01T05:36:11;93178.16;;;9.52;72.21
45793;BME280;31495;42.740;22.908;2023-05-01T05:37:10;93164.66;;;9.50;72.35
45793;BME280;31495;42.740;22.908;2023-05-01T05:38:10;93206.13;;;9.75;72.73